LFLN 301030Z AUTO 03009KT 360V060 CAVOK 21/06 Q1017 NOSIG

ElémentsDécodage
LFLN Station météo située sur l'aérodrome de SAINT-YAN
301030Z émis le 30 du mois à 10h30 UTC
AUTO Bulletin édité par un automate
03009KT vent du 030°, 09 noeuds
360V060 vent de direction variable entre 360° et 060°
CAVOK Ceiling And Visibility OK
- Visibilité de 10 Km ou plus
- Pas de nuage au-dessous de 1500m ou au-dessous de l'altitude minimale du secteur la plus élevée (si>1500m) et absence de CB
- pas de temps présent significatif
21/06 température 21°C, point de rosée 06°C
 soit une humidité relative de 38%
Q1017 la pression au niveau de la mer (QNH) est de 1017 hPa
NOSIG Pas de changement significatif prévu au cours des deux heures suivant l'heure de l'observation